createdAt,value
2022-08-07T00:00:54.721Z,60.60
2022-08-07T00:02:59.810Z,60.60
2022-08-07T00:05:08.321Z,60.57
2022-08-07T00:07:13.186Z,60.61
2022-08-07T00:09:22.749Z,60.59
2022-08-07T00:11:29.954Z,60.53
2022-08-07T00:13:40.595Z,60.68
2022-08-07T00:15:51.183Z,60.59
2022-08-07T00:17:56.277Z,60.89
2022-08-07T00:20:03.534Z,60.81
2022-08-07T00:22:08.417Z,60.79
2022-08-07T00:24:16.926Z,60.93
2022-08-07T00:26:48.701Z,60.85
2022-08-07T00:28:56.747Z,60.94
2022-08-07T00:31:04.439Z,60.89
2022-08-07T00:33:11.118Z,61.05
2022-08-07T00:35:17.664Z,60.98
2022-08-07T00:37:22.680Z,61.15
2022-08-07T00:39:27.570Z,60.95
2022-08-07T00:41:45.267Z,60.73
2022-08-07T00:44:00.521Z,60.89
2022-08-07T00:46:07.967Z,60.77
2022-08-07T00:48:13.411Z,60.78
2022-08-07T00:50:33.080Z,60.46
2022-08-07T00:52:47.435Z,60.57
2022-08-07T00:54:53.877Z,60.31
2022-08-07T00:56:59.050Z,60.25
2022-08-07T00:59:05.386Z,60.42
2022-08-07T01:01:10.357Z,60.46
2022-08-07T01:03:15.455Z,60.31
2022-08-07T01:05:24.578Z,60.33
2022-08-07T01:07:30.935Z,60.25
2022-08-07T01:10:06.196Z,60.34
2022-08-07T01:12:09.745Z,60.24
2022-08-07T01:14:28.320Z,60.11
2022-08-07T01:16:34.074Z,59.96
2022-08-07T01:18:40.194Z,60.03
2022-08-07T01:20:57.292Z,60.13
2022-08-07T01:23:12.210Z,59.95
2022-08-07T01:25:54.667Z,60.05
2022-08-07T01:27:51.310Z,59.91
2022-08-07T01:29:56.955Z,59.84
2022-08-07T01:32:05.506Z,60.13
2022-08-07T01:34:11.882Z,60.16
2022-08-07T01:36:19.454Z,60.06
2022-08-07T01:38:40.732Z,60.03
2022-08-07T01:40:58.270Z,60.11
2022-08-07T01:43:03.396Z,60.42
2022-08-07T01:45:17.734Z,60.66
2022-08-07T01:48:18.893Z,60.98
2022-08-07T01:49:53.637Z,61.14
2022-08-07T01:52:04.954Z,61.36
2022-08-07T01:54:33.200Z,61.58
2022-08-07T01:56:49.322Z,61.58
2022-08-07T01:59:03.507Z,61.50
2022-08-07T02:01:25.437Z,61.71
2022-08-07T02:03:50.515Z,61.76
2022-08-07T02:06:02.572Z,62.03
2022-08-07T02:08:27.496Z,61.76
2022-08-07T02:10:34.346Z,61.72
2022-08-07T02:12:43.609Z,61.58
2022-08-07T02:14:58.398Z,61.91
2022-08-07T02:17:24.686Z,62.01
2022-08-07T02:20:04.431Z,61.69
2022-08-07T02:21:58.784Z,61.55
2022-08-07T02:24:05.753Z,61.20
2022-08-07T02:26:32.504Z,61.30
2022-08-07T02:28:39.587Z,61.48
2022-08-07T02:30:48.162Z,61.40
2022-08-07T02:33:00.743Z,61.60
2022-08-07T02:35:15.152Z,61.58
2022-08-07T02:37:27.855Z,61.56
2022-08-07T02:40:02.183Z,61.41
2022-08-07T02:42:10.170Z,61.09
2022-08-07T02:44:24.110Z,61.23
2022-08-07T02:46:34.994Z,61.23
2022-08-07T02:48:47.190Z,61.26
2022-08-07T02:51:05.201Z,61.51
2022-08-07T02:53:15.197Z,61.31
2022-08-07T02:55:28.314Z,61.17
2022-08-07T02:57:51.113Z,61.33
2022-08-07T03:00:01.148Z,61.32
2022-08-07T03:02:09.804Z,61.45
2022-08-07T03:04:19.020Z,61.67
2022-08-07T03:06:25.558Z,61.59
2022-08-07T03:08:31.642Z,61.61
2022-08-07T03:10:46.187Z,61.62
2022-08-07T03:12:52.812Z,61.49
2022-08-07T03:14:58.478Z,61.48
2022-08-07T03:17:08.786Z,61.49
2022-08-07T03:19:14.286Z,61.40
2022-08-07T03:21:19.858Z,61.46
2022-08-07T03:23:33.767Z,61.48
2022-08-07T03:25:58.371Z,61.56
2022-08-07T03:28:09.481Z,61.52
2022-08-07T03:30:33.151Z,61.29
2022-08-07T03:32:49.108Z,61.23
2022-08-07T03:35:17.836Z,61.27
2022-08-07T03:37:27.725Z,61.16
2022-08-07T03:39:46.144Z,61.19
2022-08-07T03:42:03.643Z,61.27
2022-08-07T03:44:09.430Z,61.25
2022-08-07T03:46:18.613Z,61.12
2022-08-07T03:48:26.781Z,61.10
2022-08-07T03:50:36.867Z,61.05
2022-08-07T03:52:42.891Z,60.87
2022-08-07T03:54:54.783Z,60.70
2022-08-07T03:57:07.497Z,60.65
2022-08-07T03:59:13.964Z,60.66
2022-08-07T04:01:23.300Z,60.69
2022-08-07T04:03:28.529Z,60.76
2022-08-07T04:05:53.600Z,60.46
2022-08-07T04:08:04.292Z,60.61
2022-08-07T04:10:15.300Z,60.62
2022-08-07T04:12:27.948Z,60.70
2022-08-07T04:14:37.750Z,60.74
2022-08-07T04:16:58.241Z,60.59
2022-08-07T04:19:12.757Z,60.62
2022-08-07T04:21:21.465Z,60.58
2022-08-07T04:23:43.348Z,60.76
2022-08-07T04:25:54.963Z,60.66
2022-08-07T04:28:02.752Z,60.72
2022-08-07T04:30:21.277Z,60.63
2022-08-07T04:32:40.306Z,60.86
2022-08-07T04:34:50.957Z,61.00
2022-08-07T04:36:56.835Z,60.98
2022-08-07T04:39:02.043Z,60.98
2022-08-07T04:41:07.679Z,60.90
2022-08-07T04:43:17.835Z,61.08
2022-08-07T04:45:57.279Z,60.97
2022-08-07T04:48:04.688Z,60.97
2022-08-07T04:50:25.987Z,61.11
2022-08-07T04:52:56.218Z,61.03
2022-08-07T04:55:14.864Z,60.96
2022-08-07T04:58:12.229Z,60.82
2022-08-07T05:00:30.351Z,60.91
2022-08-07T05:02:44.694Z,60.95
2022-08-07T05:05:12.044Z,61.03
2022-08-07T05:07:48.158Z,60.91
2022-08-07T05:09:59.279Z,60.97
2022-08-07T05:12:10.135Z,60.84
2022-08-07T05:14:52.379Z,60.84
2022-08-07T05:16:53.880Z,60.61
2022-08-07T05:19:03.542Z,60.74
2022-08-07T05:21:14.571Z,60.55
2022-08-07T05:23:30.939Z,60.68
2022-08-07T05:26:11.736Z,60.53
2022-08-07T05:28:20.041Z,60.63
2022-08-07T05:30:32.401Z,60.57
2022-08-07T05:32:40.275Z,60.66
2022-08-07T05:34:47.977Z,60.57
2022-08-07T05:36:55.823Z,60.56
2022-08-07T05:40:06.493Z,60.45
2022-08-07T05:42:00.184Z,60.49
2022-08-07T05:44:12.000Z,60.41
2022-08-07T05:46:19.744Z,60.35
2022-08-07T05:48:31.998Z,60.38
2022-08-07T05:50:42.706Z,60.37
2022-08-07T05:52:51.664Z,60.42
2022-08-07T05:54:58.566Z,60.40
2022-08-07T05:57:06.261Z,60.34
2022-08-07T05:59:21.407Z,60.47
2022-08-07T06:01:35.647Z,60.27
2022-08-07T06:03:53.455Z,60.09
2022-08-07T06:06:02.804Z,60.09
2022-08-07T06:08:30.358Z,60.07
2022-08-07T06:10:35.464Z,60.05
2022-08-07T06:12:41.454Z,60.05
2022-08-07T06:14:49.460Z,60.04
2022-08-07T06:16:57.149Z,59.98
2022-08-07T06:19:09.035Z,59.93
2022-08-07T06:22:15.684Z,59.65
2022-08-07T06:24:37.730Z,59.65
2022-08-07T06:26:16.943Z,59.53
2022-08-07T06:28:27.810Z,59.41
2022-08-07T06:30:37.175Z,59.39
2022-08-07T06:32:55.141Z,59.01
2022-08-07T06:35:01.057Z,58.92
2022-08-07T06:37:06.117Z,58.90
2022-08-07T06:40:13.362Z,58.83
2022-08-07T06:42:01.094Z,58.48
2022-08-07T06:44:31.096Z,58.68
2022-08-07T06:46:41.454Z,58.40
2022-08-07T06:48:48.907Z,58.29
2022-08-07T06:50:59.759Z,57.71
2022-08-07T06:53:49.175Z,57.31
2022-08-07T06:55:53.386Z,57.10
2022-08-07T06:58:04.249Z,57.06
2022-08-07T07:00:18.031Z,56.79
2022-08-07T07:02:27.050Z,56.79
2022-08-07T07:04:55.144Z,56.56
2022-08-07T07:07:02.227Z,56.52
2022-08-07T07:09:20.966Z,56.67
2022-08-07T07:12:09.009Z,56.46
2022-08-07T07:14:01.574Z,56.74
2022-08-07T07:16:13.940Z,56.46
2022-08-07T07:18:47.487Z,56.81
2022-08-07T07:20:56.498Z,56.55
2022-08-07T07:24:08.689Z,56.56
2022-08-07T07:26:33.964Z,56.53
2022-08-07T07:28:02.587Z,56.47
2022-08-07T07:30:12.155Z,56.77
2022-08-07T07:32:18.738Z,56.51
2022-08-07T07:34:30.736Z,56.07
2022-08-07T07:36:40.363Z,56.09
2022-08-07T07:38:47.593Z,55.89
2022-08-07T07:40:57.600Z,55.96
2022-08-07T07:43:15.193Z,56.00
2022-08-07T07:46:38.102Z,56.03
2022-08-07T07:47:54.208Z,55.78
2022-08-07T07:50:35.015Z,56.00
2022-08-07T07:52:28.518Z,55.85
2022-08-07T07:54:35.866Z,55.85
2022-08-07T07:56:41.579Z,56.16
2022-08-07T07:58:48.474Z,56.34
2022-08-07T08:00:56.150Z,56.40
2022-08-07T08:03:08.406Z,56.73
2022-08-07T08:05:16.015Z,56.43
2022-08-07T08:07:22.598Z,56.46
2022-08-07T08:09:52.158Z,56.48
2022-08-07T08:12:09.396Z,55.95
2022-08-07T08:14:21.408Z,55.33
2022-08-07T08:16:38.826Z,55.11
2022-08-07T08:18:45.079Z,54.91
2022-08-07T08:20:55.881Z,55.00
2022-08-07T08:23:03.689Z,55.28
2022-08-07T08:25:24.876Z,54.93
2022-08-07T08:27:44.071Z,55.18
2022-08-07T08:30:06.419Z,55.18
2022-08-07T08:32:18.463Z,55.06
2022-08-07T08:34:29.008Z,54.89
2022-08-07T08:36:36.806Z,54.74
2022-08-07T08:38:46.283Z,54.87
2022-08-07T08:40:58.064Z,54.88
2022-08-07T08:43:10.904Z,55.08
2022-08-07T08:45:26.635Z,55.25
2022-08-07T08:47:56.042Z,55.26
2022-08-07T08:50:15.125Z,55.04
2022-08-07T08:52:29.467Z,54.92
2022-08-07T08:54:45.166Z,54.90
2022-08-07T08:56:53.409Z,54.76
2022-08-07T08:59:08.680Z,54.84
2022-08-07T09:01:29.676Z,54.64
2022-08-07T09:03:57.751Z,54.86
2022-08-07T09:06:11.350Z,54.66
2022-08-07T09:08:31.890Z,54.66
2022-08-07T09:10:46.956Z,54.78
2022-08-07T09:13:09.632Z,54.55
2022-08-07T09:16:24.120Z,54.54
2022-08-07T09:18:22.619Z,54.53
2022-08-07T09:20:35.736Z,54.62
2022-08-07T09:24:35.069Z,54.63
2022-08-07T09:25:25.140Z,54.47
2022-08-07T09:28:00.413Z,54.45
2022-08-07T09:30:10.325Z,54.17
2022-08-07T09:32:26.405Z,54.09
2022-08-07T09:34:45.144Z,54.22
2022-08-07T09:37:04.656Z,54.12
2022-08-07T09:39:54.568Z,54.12
2022-08-07T09:42:04.079Z,53.96
2022-08-07T09:44:46.609Z,53.85
2022-08-07T09:47:51.688Z,53.86
2022-08-07T09:50:02.566Z,53.85
2022-08-07T09:52:34.643Z,53.69
2022-08-07T09:54:45.434Z,53.43
2022-08-07T09:57:32.764Z,53.35
2022-08-07T10:00:02.010Z,53.29
2022-08-07T10:02:34.695Z,53.19
2022-08-07T10:05:01.316Z,53.25
2022-08-07T10:07:52.767Z,53.27
2022-08-07T10:10:21.414Z,52.99
2022-08-07T10:12:52.894Z,53.34
2022-08-07T10:15:19.093Z,52.77
2022-08-07T10:18:02.541Z,52.53
2022-08-07T10:20:22.059Z,52.41
2022-08-07T10:22:51.154Z,52.66
2022-08-07T10:25:09.475Z,51.93
2022-08-07T10:27:46.829Z,51.92
2022-08-07T10:30:06.294Z,51.71
2022-08-07T10:32:37.101Z,51.75
2022-08-07T10:35:14.946Z,51.65
2022-08-07T10:38:00.963Z,51.48
2022-08-07T10:40:09.171Z,51.09
2022-08-07T10:42:31.122Z,51.11
2022-08-07T10:44:50.115Z,50.86
2022-08-07T10:47:00.749Z,50.75
2022-08-07T10:49:14.588Z,50.23
2022-08-07T10:51:57.182Z,49.97
2022-08-07T10:54:04.339Z,50.10
2022-08-07T10:56:31.125Z,50.10
2022-08-07T10:59:01.172Z,49.76
2022-08-07T11:01:23.726Z,49.43
2022-08-07T11:03:47.889Z,49.50
2022-08-07T11:06:08.647Z,49.00
2022-08-07T11:08:30.159Z,48.74
2022-08-07T11:10:43.520Z,48.46
2022-08-07T11:13:02.104Z,48.02
2022-08-07T11:15:17.287Z,48.04
2022-08-07T11:17:43.310Z,47.91
2022-08-07T11:19:55.764Z,48.30
2022-08-07T11:22:19.195Z,47.85
2022-08-07T11:24:45.420Z,48.01
2022-08-07T11:27:00.308Z,48.20
2022-08-07T11:29:13.352Z,47.62
2022-08-07T11:31:41.802Z,47.27
2022-08-07T11:33:59.948Z,47.57
2022-08-07T11:36:20.473Z,47.94
2022-08-07T11:38:40.592Z,47.49
2022-08-07T11:40:56.197Z,47.72
2022-08-07T11:43:08.358Z,47.41
2022-08-07T11:45:29.936Z,47.47
2022-08-07T11:47:59.507Z,47.35
2022-08-07T11:50:32.437Z,47.19
2022-08-07T11:52:49.992Z,47.22
2022-08-07T11:55:18.915Z,47.37
2022-08-07T11:57:59.443Z,47.54
2022-08-07T12:00:18.958Z,47.07
2022-08-07T12:02:52.752Z,46.65
2022-08-07T12:05:15.378Z,46.50
2022-08-07T12:07:39.089Z,46.33
2022-08-07T12:09:54.093Z,46.60
2022-08-07T12:12:10.576Z,46.53
2022-08-07T12:14:20.287Z,46.47
2022-08-07T12:16:30.580Z,46.47
2022-08-07T12:18:45.534Z,46.19
2022-08-07T12:21:05.882Z,45.79
2022-08-07T12:24:05.711Z,45.94
2022-08-07T12:26:06.070Z,45.55
2022-08-07T12:28:31.078Z,45.48
2022-08-07T12:30:40.702Z,45.36
2022-08-07T12:32:58.614Z,45.44
2022-08-07T12:35:08.487Z,45.60
2022-08-07T12:37:16.856Z,45.60
2022-08-07T12:39:42.263Z,45.73
2022-08-07T12:41:52.080Z,45.43
2022-08-07T12:44:03.674Z,45.52
2022-08-07T12:46:26.653Z,45.66
2022-08-07T12:48:53.290Z,45.56
2022-08-07T12:51:17.067Z,45.48
2022-08-07T12:54:02.861Z,45.43
2022-08-07T12:56:09.673Z,45.29
2022-08-07T12:58:22.489Z,44.91
2022-08-07T13:00:50.107Z,44.72
2022-08-07T13:03:13.130Z,44.86
2022-08-07T13:06:03.112Z,44.77
2022-08-07T13:08:29.336Z,44.90
2022-08-07T13:10:52.052Z,44.53
2022-08-07T13:13:10.945Z,44.62
2022-08-07T13:15:29.522Z,44.72
2022-08-07T13:17:44.351Z,44.59
2022-08-07T13:19:54.610Z,43.96
2022-08-07T13:22:12.753Z,44.09
2022-08-07T13:24:52.452Z,44.29
2022-08-07T13:27:05.762Z,44.15
2022-08-07T13:29:15.301Z,43.75
2022-08-07T13:31:26.177Z,43.68
2022-08-07T13:34:34.221Z,43.60
2022-08-07T13:36:19.466Z,43.10
2022-08-07T13:38:31.415Z,43.24
2022-08-07T13:40:43.245Z,42.99
2022-08-07T13:42:51.305Z,42.95
2022-08-07T13:46:06.167Z,42.95
2022-08-07T13:48:05.826Z,42.94
2022-08-07T13:50:33.009Z,42.62
2022-08-07T13:52:33.573Z,42.38
2022-08-07T13:54:49.255Z,42.66
2022-08-07T13:56:59.863Z,42.69
2022-08-07T13:59:12.224Z,42.86
2022-08-07T14:01:20.374Z,42.66
2022-08-07T14:04:07.730Z,42.48
2022-08-07T14:05:57.369Z,42.31
2022-08-07T14:08:04.848Z,42.33
2022-08-07T14:10:21.651Z,42.43
2022-08-07T14:12:42.025Z,42.34
2022-08-07T14:15:00.495Z,42.56
2022-08-07T14:17:12.980Z,42.19
2022-08-07T14:20:42.032Z,42.22
2022-08-07T14:22:11.636Z,42.32
2022-08-07T14:24:28.030Z,42.28
2022-08-07T14:26:40.597Z,42.47
2022-08-07T14:29:01.175Z,42.56
2022-08-07T14:31:13.849Z,42.16
2022-08-07T14:33:23.789Z,42.35
2022-08-07T14:35:43.216Z,42.27
2022-08-07T14:38:05.602Z,42.12
2022-08-07T14:40:26.747Z,42.33
2022-08-07T14:42:35.337Z,42.17
2022-08-07T14:45:21.598Z,41.89
2022-08-07T14:47:31.474Z,42.01
2022-08-07T14:49:58.163Z,41.85
2022-08-07T14:52:10.268Z,42.14
2022-08-07T14:54:31.346Z,42.08
2022-08-07T14:56:43.430Z,42.07
2022-08-07T14:58:55.061Z,42.35
2022-08-07T15:01:19.560Z,42.38
2022-08-07T15:03:51.411Z,42.44
2022-08-07T15:06:03.922Z,42.56
2022-08-07T15:08:12.442Z,42.42
2022-08-07T15:10:26.132Z,42.23
2022-08-07T15:12:35.957Z,42.42
2022-08-07T15:17:16.901Z,42.40
2022-08-07T15:22:03.953Z,42.48
2022-08-07T15:25:15.511Z,42.68
2022-08-07T15:26:43.857Z,42.74
2022-08-07T15:28:59.467Z,42.89
2022-08-07T15:32:01.675Z,42.91
2022-08-07T15:33:57.032Z,43.26
2022-08-07T15:38:51.286Z,43.68
2022-08-07T15:41:00.341Z,43.77
2022-08-07T15:43:53.315Z,44.15
2022-08-07T15:45:57.507Z,44.21
2022-08-07T15:48:20.252Z,44.16
2022-08-07T15:51:01.261Z,44.12
2022-08-07T15:52:58.434Z,44.21
2022-08-07T15:55:12.153Z,44.31
2022-08-07T15:57:39.761Z,44.19
2022-08-07T15:59:50.227Z,44.50
2022-08-07T16:02:02.167Z,44.44
2022-08-07T16:04:15.603Z,44.35
2022-08-07T16:06:28.301Z,44.61
2022-08-07T16:08:40.776Z,44.82
2022-08-07T16:10:52.372Z,44.71
2022-08-07T16:13:39.381Z,44.96
2022-08-07T16:16:42.772Z,44.98
2022-08-07T16:18:50.726Z,45.48
2022-08-07T16:21:44.145Z,45.71
2022-08-07T16:23:53.572Z,45.63
2022-08-07T16:26:08.157Z,45.81
2022-08-07T16:30:08.642Z,45.94
2022-08-07T16:31:00.264Z,46.15
2022-08-07T16:34:02.072Z,46.12
2022-08-07T16:35:59.468Z,46.30
2022-08-07T16:38:59.902Z,46.70
2022-08-07T16:41:41.786Z,46.71
2022-08-07T16:45:04.096Z,47.02
2022-08-07T16:47:31.412Z,47.08
2022-08-07T16:50:20.674Z,47.25
2022-08-07T16:52:55.995Z,47.05
2022-08-07T16:55:14.892Z,47.18
2022-08-07T16:58:02.345Z,47.32
2022-08-07T17:00:10.941Z,47.41
2022-08-07T17:02:53.486Z,47.57
2022-08-07T17:06:01.476Z,47.88
2022-08-07T17:07:55.841Z,47.80
2022-08-07T17:10:09.187Z,48.15
2022-08-07T17:12:44.370Z,48.06
2022-08-07T17:14:56.308Z,48.30
2022-08-07T17:17:08.470Z,48.32
2022-08-07T17:20:00.972Z,48.77
2022-08-07T17:21:59.001Z,49.33
2022-08-07T17:24:38.639Z,50.63
2022-08-07T17:26:51.895Z,51.18
2022-08-07T17:29:07.060Z,52.58
2022-08-07T17:31:17.902Z,53.74
2022-08-07T17:33:39.098Z,54.74
2022-08-07T17:36:02.881Z,56.66
2022-08-07T17:38:33.898Z,57.93
2022-08-07T17:40:50.502Z,58.92
2022-08-07T17:43:02.578Z,60.04
2022-08-07T17:45:24.273Z,61.42
2022-08-07T17:47:42.375Z,62.27
2022-08-07T17:49:54.462Z,63.44
2022-08-07T17:52:10.624Z,64.58
2022-08-07T17:54:29.615Z,65.09
2022-08-07T17:56:52.541Z,65.08
2022-08-07T17:59:17.161Z,65.49
2022-08-07T18:01:34.819Z,65.61
2022-08-07T18:04:03.721Z,65.58
2022-08-07T18:06:36.622Z,65.88
2022-08-07T18:09:01.885Z,66.55
2022-08-07T18:12:17.652Z,66.67
2022-08-07T18:13:49.777Z,66.32
2022-08-07T18:16:09.939Z,66.76
2022-08-07T18:18:47.501Z,67.19
2022-08-07T18:21:12.801Z,67.56
2022-08-07T18:23:43.704Z,68.16
2022-08-07T18:26:03.561Z,68.65
2022-08-07T18:28:35.566Z,69.65
2022-08-07T18:30:58.471Z,70.06
2022-08-07T18:33:55.626Z,70.93
2022-08-07T18:36:14.668Z,71.38
2022-08-07T18:38:55.109Z,70.79
2022-08-07T18:41:09.280Z,70.93
2022-08-07T18:43:36.701Z,71.06
2022-08-07T18:46:25.858Z,71.80
2022-08-07T18:50:04.838Z,71.03
2022-08-07T18:51:05.758Z,70.60
2022-08-07T18:53:22.003Z,70.73
2022-08-07T18:55:56.253Z,71.17
2022-08-07T18:58:33.605Z,70.76
2022-08-07T19:00:54.190Z,70.51
2022-08-07T19:03:12.041Z,71.63
2022-08-07T19:06:02.065Z,71.24
2022-08-07T19:07:59.664Z,72.64
2022-08-07T19:10:21.471Z,74.23
2022-08-07T19:12:34.599Z,75.19
2022-08-07T19:14:51.188Z,75.46
2022-08-07T19:17:08.547Z,75.81
2022-08-07T19:19:32.040Z,76.00
2022-08-07T19:21:53.630Z,76.31
2022-08-07T19:24:09.535Z,76.69
2022-08-07T19:26:22.809Z,76.65
2022-08-07T19:30:55.224Z,76.52
2022-08-07T19:31:41.752Z,76.31
2022-08-07T19:33:43.342Z,76.42
2022-08-07T19:36:03.079Z,76.58
2022-08-07T19:38:16.815Z,76.88
2022-08-07T19:40:31.238Z,76.74
2022-08-07T19:42:42.882Z,77.12
2022-08-07T19:44:49.473Z,77.33
2022-08-07T19:47:05.466Z,76.92
2022-08-07T19:49:16.598Z,76.83
2022-08-07T19:51:51.295Z,76.51
2022-08-07T19:54:33.256Z,76.13
2022-08-07T19:58:01.451Z,74.65
2022-08-07T19:58:52.825Z,74.34
2022-08-07T20:00:59.722Z,73.93
2022-08-07T20:03:33.636Z,72.66
2022-08-07T20:06:00.662Z,70.56
2022-08-07T20:08:09.213Z,69.85
2022-08-07T20:10:35.352Z,70.11
2022-08-07T20:12:43.256Z,69.50
2022-08-07T20:14:58.649Z,68.31
2022-08-07T20:17:07.944Z,67.37
2022-08-07T20:19:13.834Z,65.74
2022-08-07T20:21:22.101Z,65.12
2022-08-07T20:23:40.668Z,65.01
2022-08-07T20:25:51.074Z,65.20
2022-08-07T20:28:05.763Z,64.44
2022-08-07T20:30:12.929Z,64.14
2022-08-07T20:32:39.707Z,63.88
2022-08-07T20:34:51.181Z,63.18
2022-08-07T20:36:59.156Z,62.26
2022-08-07T20:39:11.630Z,61.77
2022-08-07T20:41:37.969Z,61.50
2022-08-07T20:43:47.787Z,60.98
2022-08-07T20:46:28.240Z,61.20
2022-08-07T20:48:28.295Z,60.63
2022-08-07T20:50:35.600Z,60.48
2022-08-07T20:52:51.159Z,60.42
2022-08-07T20:54:58.005Z,60.62
2022-08-07T20:57:08.180Z,60.79
2022-08-07T21:00:04.879Z,60.79
2022-08-07T21:01:54.897Z,60.74
2022-08-07T21:04:22.192Z,60.24
2022-08-07T21:06:31.409Z,60.20
2022-08-07T21:08:40.725Z,60.67
2022-08-07T21:10:49.127Z,60.48
2022-08-07T21:12:57.859Z,60.26
2022-08-07T21:15:08.249Z,60.45
2022-08-07T21:18:03.309Z,60.45
2022-08-07T21:19:51.323Z,60.46
2022-08-07T21:22:07.876Z,60.50
2022-08-07T21:24:18.658Z,60.32
2022-08-07T21:26:34.786Z,60.22
2022-08-07T21:28:51.131Z,60.23
2022-08-07T21:31:12.401Z,60.19
2022-08-07T21:33:22.053Z,60.00
2022-08-07T21:35:34.513Z,60.06
2022-08-07T21:38:08.343Z,59.70
2022-08-07T21:40:20.469Z,59.71
2022-08-07T21:42:42.802Z,59.71
2022-08-07T21:44:57.538Z,59.84
2022-08-07T21:47:12.371Z,59.51
2022-08-07T21:49:27.063Z,59.63
2022-08-07T21:51:54.538Z,59.65
2022-08-07T21:54:18.826Z,59.72
2022-08-07T21:56:47.844Z,59.62
2022-08-07T21:59:03.705Z,59.46
2022-08-07T22:01:28.686Z,59.50
2022-08-07T22:03:57.509Z,59.57
2022-08-07T22:06:29.998Z,59.64
2022-08-07T22:08:37.733Z,59.66
2022-08-07T22:10:47.981Z,59.58
2022-08-07T22:12:57.260Z,59.58
2022-08-07T22:16:43.937Z,59.60
2022-08-07T22:17:44.183Z,59.40
2022-08-07T22:20:23.550Z,59.25
2022-08-07T22:22:36.762Z,59.18
2022-08-07T22:25:02.911Z,59.34
2022-08-07T22:27:16.171Z,59.13
2022-08-07T22:29:37.823Z,59.02
2022-08-07T22:32:03.453Z,59.06
2022-08-07T22:34:17.513Z,58.82
2022-08-07T22:36:42.303Z,58.78
2022-08-07T22:38:55.301Z,58.74
2022-08-07T22:41:03.238Z,58.46
2022-08-07T22:43:16.997Z,58.46
2022-08-07T22:46:21.655Z,58.51
2022-08-07T22:48:13.971Z,58.27
2022-08-07T22:50:46.114Z,58.22
2022-08-07T22:53:15.254Z,60.43
2022-08-07T22:55:51.647Z,63.57
2022-08-07T22:58:10.530Z,63.97
2022-08-07T23:00:21.451Z,64.17
2022-08-07T23:02:42.218Z,64.61
2022-08-07T23:06:07.352Z,64.82
2022-08-07T23:07:42.191Z,65.65
2022-08-07T23:10:34.182Z,65.99
2022-08-07T23:12:39.476Z,66.34
2022-08-07T23:15:00.036Z,66.86
2022-08-07T23:17:22.585Z,67.08
2022-08-07T23:19:51.498Z,67.34
2022-08-07T23:22:03.319Z,67.40
2022-08-07T23:24:27.954Z,67.58
2022-08-07T23:26:50.175Z,67.62
2022-08-07T23:29:43.918Z,67.30
2022-08-07T23:34:20.124Z,67.12
2022-08-07T23:34:44.932Z,67.31
2022-08-07T23:37:20.257Z,67.40
2022-08-07T23:39:41.246Z,67.92
2022-08-07T23:42:04.314Z,68.04
2022-08-07T23:44:57.579Z,68.46
2022-08-07T23:47:19.924Z,68.49
2022-08-07T23:49:58.907Z,68.55
2022-08-07T23:53:05.300Z,68.86
2022-08-07T23:54:52.060Z,69.34
2022-08-07T23:57:09.084Z,69.25
